createdAt,value
2024-03-24T00:00:08.912Z,4
2024-03-24T00:01:20.919Z,4
2024-03-24T00:02:32.937Z,4
2024-03-24T00:03:44.953Z,4
2024-03-24T00:04:56.922Z,4
2024-03-24T00:06:08.926Z,4
2024-03-24T00:07:20.922Z,4
2024-03-24T00:08:32.906Z,4
2024-03-24T00:09:44.912Z,4
2024-03-24T00:10:56.913Z,4
2024-03-24T00:12:08.958Z,4
2024-03-24T00:13:20.893Z,4
2024-03-24T00:14:32.911Z,4
2024-03-24T00:15:44.941Z,4
2024-03-24T00:16:56.906Z,4
2024-03-24T00:18:08.931Z,4
2024-03-24T00:19:20.909Z,4
2024-03-24T00:20:32.937Z,4
2024-03-24T00:21:44.946Z,4
2024-03-24T00:22:56.915Z,4
2024-03-24T00:24:08.967Z,4
2024-03-24T00:25:20.952Z,4
2024-03-24T00:26:32.938Z,4
2024-03-24T00:27:44.931Z,4
2024-03-24T00:28:56.936Z,4
2024-03-24T00:30:09.013Z,4.1
2024-03-24T00:31:20.943Z,4.1
2024-03-24T00:32:32.921Z,4.1
2024-03-24T00:33:44.920Z,4.1
2024-03-24T00:34:56.916Z,4.2
2024-03-24T00:36:08.937Z,4.2
2024-03-24T00:37:20.927Z,4.2
2024-03-24T00:38:32.917Z,4.2
2024-03-24T00:39:45.563Z,4.2
2024-03-24T00:40:56.935Z,4.2
2024-03-24T00:42:08.972Z,4.2
2024-03-24T00:43:20.931Z,4.2
2024-03-24T00:44:32.943Z,4.2
2024-03-24T00:45:44.937Z,4.2
2024-03-24T00:46:56.963Z,4.2
2024-03-24T00:48:08.927Z,4.2
2024-03-24T00:49:20.963Z,4.2
2024-03-24T00:50:32.926Z,4.2
2024-03-24T00:51:45.328Z,4.3
2024-03-24T00:52:57.330Z,4.3
2024-03-24T00:54:09.308Z,4.3
2024-03-24T00:55:21.357Z,4.3
2024-03-24T00:56:33.313Z,4.3
2024-03-24T00:57:45.333Z,4.3
2024-03-24T00:58:57.314Z,4.3
2024-03-24T01:00:09.317Z,4.4
2024-03-24T01:01:21.333Z,4.4
2024-03-24T01:02:33.341Z,4.4
2024-03-24T01:03:45.316Z,4.4
2024-03-24T01:04:57.337Z,4.4
2024-03-24T01:06:09.330Z,4.4
2024-03-24T01:07:21.341Z,4.4
2024-03-24T01:08:33.336Z,4.4
2024-03-24T01:09:45.355Z,4.4
2024-03-24T01:10:57.347Z,4.4
2024-03-24T01:12:09.344Z,4.4
2024-03-24T01:13:21.324Z,4.4
2024-03-24T01:14:33.326Z,4.4
2024-03-24T01:15:45.341Z,4.4
2024-03-24T01:16:57.343Z,4.4
2024-03-24T01:18:09.316Z,4.4
2024-03-24T01:19:21.421Z,4.4
2024-03-24T01:20:33.329Z,4.4
2024-03-24T01:21:45.319Z,4.4
2024-03-24T01:22:57.362Z,4.4
2024-03-24T01:24:09.331Z,4.4
2024-03-24T01:25:21.363Z,4.4
2024-03-24T01:26:33.461Z,4.3
2024-03-24T01:27:45.330Z,4.3
2024-03-24T01:28:57.333Z,4.3
2024-03-24T01:30:09.362Z,4.3
2024-03-24T01:31:21.371Z,4.3
2024-03-24T01:32:33.365Z,4.3
2024-03-24T01:33:45.336Z,4.3
2024-03-24T01:34:57.363Z,4.3
2024-03-24T01:36:09.368Z,4.3
2024-03-24T01:37:21.324Z,4.3
2024-03-24T01:38:33.332Z,4.3
2024-03-24T01:39:45.358Z,4.3
2024-03-24T01:40:57.368Z,4.3
2024-03-24T01:42:09.352Z,4.3
2024-03-24T01:43:21.339Z,4.3
2024-03-24T01:44:33.334Z,4.3
2024-03-24T01:45:45.372Z,4.4
2024-03-24T01:46:57.396Z,4.4
2024-03-24T01:48:09.348Z,4.4
2024-03-24T01:49:21.360Z,4.4
2024-03-24T01:50:33.371Z,4.4
2024-03-24T01:51:45.748Z,4.5
2024-03-24T01:52:57.750Z,4.5
2024-03-24T01:54:09.720Z,4.5
2024-03-24T01:55:21.735Z,4.5
2024-03-24T01:56:33.735Z,4.5
2024-03-24T01:57:45.747Z,4.5
2024-03-24T01:58:57.735Z,4.6
2024-03-24T02:00:09.741Z,4.6
2024-03-24T02:01:21.718Z,4.6
2024-03-24T02:02:33.742Z,4.6
2024-03-24T02:03:45.770Z,4.6
2024-03-24T02:04:57.746Z,4.6
2024-03-24T02:06:09.749Z,4.6
2024-03-24T02:07:21.733Z,4.6
2024-03-24T02:08:33.729Z,4.6
2024-03-24T02:09:45.761Z,4.6
2024-03-24T02:10:57.766Z,4.6
2024-03-24T02:12:09.726Z,4.7
2024-03-24T02:13:21.742Z,4.7
2024-03-24T02:14:33.740Z,4.7
2024-03-24T02:15:45.759Z,4.7
2024-03-24T02:16:57.752Z,4.7
2024-03-24T02:18:09.770Z,4.7
2024-03-24T02:19:21.764Z,4.8
2024-03-24T02:20:33.768Z,4.8
2024-03-24T02:21:45.801Z,4.8
2024-03-24T02:22:57.780Z,4.8
2024-03-24T02:24:09.763Z,4.8
2024-03-24T02:25:21.740Z,4.8
2024-03-24T02:26:33.736Z,4.8
2024-03-24T02:27:45.814Z,4.8
2024-03-24T02:28:57.771Z,4.8
2024-03-24T02:30:09.796Z,4.8
2024-03-24T02:31:21.791Z,4.9
2024-03-24T02:32:33.735Z,4.9
2024-03-24T02:33:45.751Z,4.9
2024-03-24T02:34:57.765Z,4.9
2024-03-24T02:36:09.747Z,4.9
2024-03-24T02:37:21.741Z,4.9
2024-03-24T02:38:33.768Z,5
2024-03-24T02:39:45.777Z,5
2024-03-24T02:40:57.776Z,5
2024-03-24T02:42:09.749Z,5
2024-03-24T02:43:21.753Z,5
2024-03-24T02:44:33.764Z,5
2024-03-24T02:45:45.761Z,5
2024-03-24T02:46:57.799Z,5
2024-03-24T02:48:09.934Z,5
2024-03-24T02:49:21.764Z,5
2024-03-24T02:50:33.770Z,5
2024-03-24T02:51:46.141Z,5
2024-03-24T02:52:58.122Z,5
2024-03-24T02:54:10.219Z,5
2024-03-24T02:55:22.169Z,5
2024-03-24T02:56:34.146Z,5
2024-03-24T02:57:46.143Z,5
2024-03-24T02:58:58.151Z,5
2024-03-24T03:00:10.134Z,5
2024-03-24T03:01:22.152Z,5
2024-03-24T03:02:34.158Z,5
2024-03-24T03:03:46.163Z,5
2024-03-24T03:04:58.161Z,5
2024-03-24T03:06:10.187Z,5
2024-03-24T03:07:22.168Z,5
2024-03-24T03:08:34.141Z,5
2024-03-24T03:09:46.224Z,5
2024-03-24T03:10:58.175Z,5
2024-03-24T03:12:10.134Z,5
2024-03-24T03:13:22.153Z,5
2024-03-24T03:14:34.171Z,5
2024-03-24T03:15:46.194Z,5
2024-03-24T03:16:58.172Z,5
2024-03-24T03:18:10.183Z,5
2024-03-24T03:19:22.187Z,5
2024-03-24T03:20:34.163Z,5
2024-03-24T03:22:58.157Z,5
2024-03-24T03:24:10.228Z,5
2024-03-24T03:25:22.144Z,5
2024-03-24T03:26:34.142Z,5
2024-03-24T03:27:46.184Z,5
2024-03-24T03:28:58.180Z,5
2024-03-24T03:30:10.171Z,5
2024-03-24T03:31:22.152Z,5
2024-03-24T03:32:34.189Z,5
2024-03-24T03:33:46.154Z,5.1
2024-03-24T03:34:58.151Z,5.1
2024-03-24T03:36:10.159Z,5.1
2024-03-24T03:37:22.158Z,5.1
2024-03-24T03:38:34.171Z,5.1
2024-03-24T03:39:46.169Z,5
2024-03-24T03:40:58.155Z,5
2024-03-24T03:42:10.212Z,5
2024-03-24T03:43:22.192Z,5
2024-03-24T03:44:34.162Z,5
2024-03-24T03:45:46.168Z,4.9
2024-03-24T03:46:58.175Z,4.9
2024-03-24T03:48:10.167Z,4.9
2024-03-24T03:49:22.198Z,4.9
2024-03-24T03:50:34.192Z,4.8
2024-03-24T03:51:46.504Z,4.8
2024-03-24T03:52:58.514Z,4.8
2024-03-24T03:54:10.508Z,4.7
2024-03-24T03:55:22.496Z,4.7
2024-03-24T03:56:34.516Z,4.7
2024-03-24T03:57:46.472Z,4.7
2024-03-24T03:58:58.500Z,4.6
2024-03-24T04:00:10.508Z,4.6
2024-03-24T04:01:22.506Z,4.6
2024-03-24T04:02:34.478Z,4.6
2024-03-24T04:03:46.510Z,4.6
2024-03-24T04:04:58.484Z,4.6
2024-03-24T04:06:10.499Z,4.5
2024-03-24T04:07:22.479Z,4.5
2024-03-24T04:08:34.493Z,4.5
2024-03-24T04:09:46.498Z,4.5
2024-03-24T04:10:58.485Z,4.5
2024-03-24T04:12:10.478Z,4.5
2024-03-24T04:13:22.489Z,4.5
2024-03-24T04:14:34.524Z,4.5
2024-03-24T04:15:46.539Z,4.5
2024-03-24T04:16:58.494Z,4.5
2024-03-24T04:18:10.491Z,4.5
2024-03-24T04:19:22.519Z,4.5
2024-03-24T04:20:34.526Z,4.5
2024-03-24T04:21:46.506Z,4.5
2024-03-24T04:22:58.484Z,4.5
2024-03-24T04:24:10.526Z,4.5
2024-03-24T04:25:22.494Z,4.5
2024-03-24T04:26:34.503Z,4.4
2024-03-24T04:27:46.504Z,4.4
2024-03-24T04:28:58.530Z,4.4
2024-03-24T04:30:10.529Z,4.4
2024-03-24T04:31:22.527Z,4.4
2024-03-24T04:32:34.579Z,4.4
2024-03-24T04:33:46.509Z,4.4
2024-03-24T04:34:58.511Z,4.4
2024-03-24T04:36:10.535Z,4.4
2024-03-24T04:37:22.535Z,4.4
2024-03-24T04:38:34.508Z,4.4
2024-03-24T04:39:46.513Z,4.4
2024-03-24T04:40:58.519Z,4.4
2024-03-24T04:42:10.527Z,4.4
2024-03-24T04:43:22.512Z,4.4
2024-03-24T04:44:34.529Z,4.4
2024-03-24T04:45:46.546Z,4.4
2024-03-24T04:46:58.530Z,4.4
2024-03-24T04:48:10.511Z,4.4
2024-03-24T04:49:22.542Z,4.4
2024-03-24T04:50:34.519Z,4.4
2024-03-24T04:51:46.823Z,4.4
2024-03-24T04:52:58.832Z,4.4
2024-03-24T04:54:10.831Z,4.4
2024-03-24T04:55:22.830Z,4.4
2024-03-24T04:56:34.861Z,4.4
2024-03-24T04:57:46.852Z,4.4
2024-03-24T04:58:58.831Z,4.4
2024-03-24T05:00:10.827Z,4.4
2024-03-24T05:01:22.876Z,4.4
2024-03-24T05:02:34.833Z,4.5
2024-03-24T05:03:46.833Z,4.5
2024-03-24T05:04:58.848Z,4.5
2024-03-24T05:06:10.855Z,4.5
2024-03-24T05:07:22.832Z,4.5
2024-03-24T05:08:34.834Z,4.5
2024-03-24T05:09:46.864Z,4.5
2024-03-24T05:10:58.836Z,4.5
2024-03-24T05:12:10.841Z,4.5
2024-03-24T05:13:22.836Z,4.5
2024-03-24T05:14:34.844Z,4.5
2024-03-24T05:15:46.862Z,4.6
2024-03-24T05:16:58.888Z,4.6
2024-03-24T05:18:10.858Z,4.6
2024-03-24T05:19:22.868Z,4.6
2024-03-24T05:20:34.964Z,4.6
2024-03-24T05:21:46.849Z,4.6
2024-03-24T05:22:58.847Z,4.6
2024-03-24T05:24:10.852Z,4.6
2024-03-24T05:25:22.878Z,4.6
2024-03-24T05:26:34.847Z,4.6
2024-03-24T05:27:46.845Z,4.6
2024-03-24T05:28:58.912Z,4.6
2024-03-24T05:30:10.930Z,4.6
2024-03-24T05:31:22.873Z,4.6
2024-03-24T05:32:34.892Z,4.6
2024-03-24T05:33:46.855Z,4.6
2024-03-24T05:34:58.863Z,4.6
2024-03-24T05:36:10.917Z,4.6
2024-03-24T05:37:22.874Z,4.6
2024-03-24T05:38:34.899Z,4.6
2024-03-24T05:39:46.864Z,4.6
2024-03-24T05:40:58.858Z,4.6
2024-03-24T05:42:10.857Z,4.7
2024-03-24T05:43:22.874Z,4.7
2024-03-24T05:44:34.878Z,4.7
2024-03-24T05:45:46.900Z,4.7
2024-03-24T05:46:58.903Z,4.7
2024-03-24T05:48:10.873Z,4.7
2024-03-24T05:49:22.862Z,4.7
2024-03-24T05:50:34.854Z,4.7
2024-03-24T05:51:47.272Z,4.7
2024-03-24T05:52:59.267Z,4.7
2024-03-24T05:54:11.256Z,4.8
2024-03-24T05:55:23.238Z,4.8
2024-03-24T05:56:35.237Z,4.8
2024-03-24T05:57:47.257Z,4.8
2024-03-24T05:58:59.244Z,4.8
2024-03-24T06:00:11.233Z,4.8
2024-03-24T06:01:23.276Z,4.8
2024-03-24T06:02:35.274Z,4.8
2024-03-24T06:03:47.246Z,4.8
2024-03-24T06:04:59.246Z,4.8
2024-03-24T06:06:11.261Z,4.8
2024-03-24T06:07:23.290Z,4.8
2024-03-24T06:08:35.245Z,4.8
2024-03-24T06:09:47.332Z,4.8
2024-03-24T06:10:59.279Z,4.8
2024-03-24T06:12:11.260Z,4.9
2024-03-24T06:13:23.256Z,4.9
2024-03-24T06:14:35.269Z,4.9
2024-03-24T06:15:47.249Z,4.9
2024-03-24T06:16:59.251Z,4.9
2024-03-24T06:18:11.286Z,4.9
2024-03-24T06:19:23.295Z,4.9
2024-03-24T06:20:35.288Z,4.9
2024-03-24T06:21:47.276Z,4.9
2024-03-24T06:22:59.289Z,4.9
2024-03-24T06:24:11.261Z,5
2024-03-24T06:25:23.418Z,5
2024-03-24T06:26:35.251Z,5
2024-03-24T06:27:47.279Z,5
2024-03-24T06:28:59.296Z,5
2024-03-24T06:30:11.272Z,5
2024-03-24T06:31:23.275Z,5
2024-03-24T06:32:35.264Z,5
2024-03-24T06:33:47.262Z,5
2024-03-24T06:34:59.309Z,5
2024-03-24T06:36:11.266Z,5
2024-03-24T06:37:23.263Z,5
2024-03-24T06:38:35.269Z,5
2024-03-24T06:39:47.266Z,5
2024-03-24T06:40:59.293Z,5
2024-03-24T06:42:11.260Z,5
2024-03-24T06:43:23.297Z,5
2024-03-24T06:44:35.258Z,5
2024-03-24T06:45:49.224Z,5
2024-03-24T06:46:59.273Z,5
2024-03-24T06:48:11.288Z,5
2024-03-24T06:49:23.294Z,5
2024-03-24T06:50:35.265Z,5
2024-03-24T06:51:47.573Z,5
2024-03-24T06:52:59.594Z,5
2024-03-24T06:54:11.621Z,4.9
2024-03-24T06:55:23.567Z,4.9
2024-03-24T06:56:35.581Z,4.9
2024-03-24T06:57:47.588Z,4.9
2024-03-24T06:58:59.619Z,4.9
2024-03-24T07:00:11.612Z,4.9
2024-03-24T07:01:23.616Z,4.9
2024-03-24T07:02:35.627Z,4.9
2024-03-24T07:03:47.583Z,4.9
2024-03-24T07:04:59.697Z,4.9
2024-03-24T07:06:11.615Z,4.8
2024-03-24T07:07:23.614Z,4.8
2024-03-24T07:08:35.598Z,4.8
2024-03-24T07:09:47.618Z,4.8
2024-03-24T07:10:59.617Z,4.8
2024-03-24T07:12:11.616Z,4.8
2024-03-24T07:13:23.642Z,4.8
2024-03-24T07:14:35.600Z,4.8
2024-03-24T07:15:49.064Z,4.8
2024-03-24T07:16:59.626Z,4.8
2024-03-24T07:18:11.732Z,4.8
2024-03-24T07:19:23.602Z,4.8
2024-03-24T07:20:35.600Z,4.8
2024-03-24T07:21:47.668Z,4.8
2024-03-24T07:22:59.605Z,4.8
2024-03-24T07:24:11.697Z,4.8
2024-03-24T07:25:23.639Z,4.8
2024-03-24T07:26:35.611Z,4.8
2024-03-24T07:27:47.601Z,4.8
2024-03-24T07:28:59.623Z,4.8
2024-03-24T07:30:11.627Z,4.8
2024-03-24T07:31:23.643Z,4.8
2024-03-24T07:32:35.624Z,4.8
2024-03-24T07:33:47.632Z,4.8
2024-03-24T07:34:59.653Z,4.8
2024-03-24T07:36:11.625Z,4.8
2024-03-24T07:37:23.615Z,4.8
2024-03-24T07:38:35.713Z,4.9
2024-03-24T07:39:47.624Z,4.9
2024-03-24T07:40:59.693Z,4.9
2024-03-24T07:42:11.612Z,4.9
2024-03-24T07:43:23.678Z,5
2024-03-24T07:44:35.640Z,5
2024-03-24T07:45:47.623Z,5
2024-03-24T07:46:59.606Z,5
2024-03-24T07:48:11.640Z,5.1
2024-03-24T07:49:23.713Z,5.1
2024-03-24T07:50:35.607Z,5.1
2024-03-24T07:51:47.947Z,5.1
2024-03-24T07:52:59.929Z,5.2
2024-03-24T07:54:12.244Z,5.2
2024-03-24T07:55:24.048Z,5.2
2024-03-24T07:56:35.949Z,5.3
2024-03-24T07:57:47.936Z,5.3
2024-03-24T07:58:59.925Z,5.3
2024-03-24T08:00:11.973Z,5.4
2024-03-24T08:01:23.957Z,5.4
2024-03-24T08:02:35.937Z,5.4
2024-03-24T08:03:47.955Z,5.5
2024-03-24T08:04:59.938Z,5.5
2024-03-24T08:06:11.951Z,5.5
2024-03-24T08:07:23.956Z,5.5
2024-03-24T08:08:35.958Z,5.6
2024-03-24T08:09:47.960Z,5.6
2024-03-24T08:11:00.024Z,5.6
2024-03-24T08:12:12.042Z,5.7
2024-03-24T08:13:23.997Z,5.7
2024-03-24T08:14:35.958Z,5.8
2024-03-24T08:15:47.949Z,5.8
2024-03-24T08:16:59.987Z,5.9
2024-03-24T08:18:11.938Z,5.9
2024-03-24T08:19:23.942Z,6
2024-03-24T08:20:35.937Z,6
2024-03-24T08:21:47.954Z,6
2024-03-24T08:22:59.977Z,6
2024-03-24T08:24:12.221Z,6.1
2024-03-24T08:25:23.980Z,6.1
2024-03-24T08:26:35.936Z,6.1
2024-03-24T08:27:48.020Z,6.1
2024-03-24T08:28:59.971Z,6.2
2024-03-24T08:30:12.069Z,6.2
2024-03-24T08:31:23.992Z,6.2
2024-03-24T08:32:35.988Z,6.2
2024-03-24T08:33:47.973Z,6.2
2024-03-24T08:34:59.942Z,6.3
2024-03-24T08:36:12.104Z,6.3
2024-03-24T08:37:24.006Z,6.3
2024-03-24T08:38:35.941Z,6.3
2024-03-24T08:39:47.952Z,6.3
2024-03-24T08:40:59.946Z,6.3
2024-03-24T08:42:12.098Z,6.3
2024-03-24T08:43:23.941Z,6.3
2024-03-24T08:44:35.947Z,6.3
2024-03-24T08:45:47.969Z,6.3
2024-03-24T08:46:59.947Z,6.3
2024-03-24T08:48:11.955Z,6.3
2024-03-24T08:49:23.985Z,6.3
2024-03-24T08:50:35.955Z,6.3
2024-03-24T08:51:48.271Z,6.3
2024-03-24T08:53:00.262Z,6.4
2024-03-24T08:54:12.413Z,6.4
2024-03-24T08:55:24.285Z,6.4
2024-03-24T08:56:36.263Z,6.4
2024-03-24T08:57:48.270Z,6.5
2024-03-24T08:59:00.267Z,6.5
2024-03-24T09:00:12.271Z,6.5
2024-03-24T09:01:24.292Z,6.5
2024-03-24T09:02:36.266Z,6.5
2024-03-24T09:03:48.276Z,6.5
2024-03-24T09:05:00.282Z,6.6
2024-03-24T09:06:12.277Z,6.6
2024-03-24T09:07:24.295Z,6.6
2024-03-24T09:08:36.271Z,6.6
2024-03-24T09:09:48.274Z,6.6
2024-03-24T09:11:00.316Z,6.6
2024-03-24T09:12:12.265Z,6.6
2024-03-24T09:13:24.338Z,6.6
2024-03-24T09:14:36.285Z,6.7
2024-03-24T09:15:48.280Z,6.7
2024-03-24T09:17:00.278Z,6.7
2024-03-24T09:18:12.269Z,6.7
2024-03-24T09:19:24.274Z,6.7
2024-03-24T09:20:36.319Z,6.7
2024-03-24T09:21:48.316Z,6.7
2024-03-24T09:23:00.272Z,6.7
2024-03-24T09:24:12.329Z,6.7
2024-03-24T09:25:24.277Z,6.7
2024-03-24T09:26:36.307Z,6.7
2024-03-24T09:27:48.292Z,6.7
2024-03-24T09:29:00.319Z,6.7
2024-03-24T09:30:12.314Z,6.7
2024-03-24T09:31:24.296Z,6.7
2024-03-24T09:32:36.315Z,6.7
2024-03-24T09:33:48.269Z,6.8
2024-03-24T09:35:05.499Z,6.8
2024-03-24T09:36:12.279Z,6.9
2024-03-24T09:37:24.302Z,6.9
2024-03-24T09:38:36.289Z,7
2024-03-24T09:39:48.321Z,7
2024-03-24T09:41:00.306Z,7
2024-03-24T09:42:12.315Z,7
2024-03-24T09:43:24.379Z,7
2024-03-24T09:44:36.679Z,7
2024-03-24T09:45:48.296Z,7
2024-03-24T09:47:00.325Z,7
2024-03-24T09:48:12.299Z,7
2024-03-24T09:49:24.327Z,7
2024-03-24T09:50:36.289Z,7
2024-03-24T09:51:48.660Z,7
2024-03-24T09:53:00.753Z,7.1
2024-03-24T09:54:12.686Z,7.1
2024-03-24T09:55:24.740Z,7.1
2024-03-24T09:56:36.668Z,7.1
2024-03-24T09:57:49.677Z,7.1
2024-03-24T09:59:00.708Z,7.2
2024-03-24T10:00:12.707Z,7.2
2024-03-24T10:01:24.672Z,7.2
2024-03-24T10:02:36.679Z,7.2
2024-03-24T10:03:48.726Z,7.3
2024-03-24T10:05:00.715Z,7.3
2024-03-24T10:06:12.674Z,7.4
2024-03-24T10:07:24.682Z,7.4
2024-03-24T10:08:36.672Z,7.5
2024-03-24T10:09:48.661Z,7.5
2024-03-24T10:11:00.719Z,7.6
2024-03-24T10:12:12.659Z,7.6
2024-03-24T10:13:24.772Z,7.7
2024-03-24T10:14:36.684Z,7.8
2024-03-24T10:15:48.704Z,7.8
2024-03-24T10:18:00.833Z,8
2024-03-24T10:19:12.719Z,8.1
2024-03-24T10:20:24.704Z,8.1
2024-03-24T10:21:48.693Z,8.1
2024-03-24T10:23:00.780Z,8.1
2024-03-24T10:24:24.704Z,8.1
2024-03-24T10:25:36.712Z,8.1
2024-03-24T10:26:48.707Z,8
2024-03-24T10:28:00.700Z,8
2024-03-24T10:29:12.710Z,8
2024-03-24T10:30:24.716Z,7.9
2024-03-24T10:31:36.668Z,7.9
2024-03-24T10:32:48.682Z,7.8
2024-03-24T10:34:00.774Z,7.8
2024-03-24T10:35:36.677Z,7.8
2024-03-24T10:36:48.678Z,7.8
2024-03-24T10:38:00.710Z,7.8
2024-03-24T10:39:00.699Z,7.8
2024-03-24T10:40:36.713Z,7.8
2024-03-24T10:41:48.679Z,7.8
2024-03-24T10:43:00.683Z,7.9
2024-03-24T10:44:12.695Z,7.9
2024-03-24T10:45:36.702Z,7.9
2024-03-24T10:46:48.686Z,8
2024-03-24T10:48:00.712Z,8
2024-03-24T10:49:12.689Z,8
2024-03-24T10:50:24.672Z,8.1
2024-03-24T10:51:37.059Z,8.1
2024-03-24T10:52:37.071Z,8.1
2024-03-24T10:53:49.048Z,8.1
2024-03-24T10:55:01.078Z,8.1
2024-03-24T10:56:37.078Z,8.1
2024-03-24T10:57:49.068Z,8.1
2024-03-24T10:59:13.075Z,8.1
2024-03-24T11:00:25.086Z,8
2024-03-24T11:01:37.062Z,8
2024-03-24T11:02:49.061Z,8
2024-03-24T11:04:13.091Z,7.9
2024-03-24T11:05:37.098Z,7.9
2024-03-24T11:07:01.102Z,7.9
2024-03-24T11:09:01.125Z,7.9
2024-03-24T11:10:13.104Z,7.9
2024-03-24T11:12:37.074Z,7.8
2024-03-24T11:14:49.064Z,7.8
2024-03-24T11:16:13.072Z,7.7
2024-03-24T11:17:49.125Z,7.7
2024-03-24T11:19:13.076Z,7.6
2024-03-24T11:20:25.082Z,7.6
2024-03-24T11:21:37.069Z,7.5
2024-03-24T11:22:49.129Z,7.5
2024-03-24T11:24:01.076Z,7.5
2024-03-24T11:25:13.069Z,7.4
2024-03-24T11:26:25.088Z,7.3
2024-03-24T11:27:37.116Z,7.3
2024-03-24T11:28:37.062Z,7.3
2024-03-24T11:29:49.580Z,7.2
2024-03-24T11:31:01.104Z,7.1
2024-03-24T11:32:13.103Z,7.1
2024-03-24T11:33:25.076Z,7.1
2024-03-24T11:34:37.074Z,7
2024-03-24T11:35:49.106Z,6.9
2024-03-24T11:37:01.125Z,6.9
2024-03-24T11:38:13.136Z,6.8
2024-03-24T11:39:25.067Z,6.8
2024-03-24T11:40:37.075Z,6.7
2024-03-24T11:41:49.103Z,6.7
2024-03-24T11:43:01.088Z,6.6
2024-03-24T11:44:13.139Z,6.6
2024-03-24T11:45:25.097Z,6.5
2024-03-24T11:46:37.095Z,6.5
2024-03-24T11:47:49.094Z,6.4
2024-03-24T11:49:01.171Z,6.4
2024-03-24T11:50:13.103Z,6.3
2024-03-24T11:51:25.460Z,6.3
2024-03-24T11:52:37.473Z,6.3
2024-03-24T11:53:49.494Z,6.3
2024-03-24T11:55:01.485Z,6.3
2024-03-24T11:56:37.459Z,6.2
2024-03-24T11:57:49.454Z,6.2
2024-03-24T11:59:01.469Z,6.2
2024-03-24T12:00:13.489Z,6.2
2024-03-24T12:01:25.450Z,6.3
2024-03-24T12:02:37.481Z,6.3
2024-03-24T12:03:49.529Z,6.3
2024-03-24T12:05:01.595Z,6.3
2024-03-24T12:06:13.471Z,6.4
2024-03-24T12:07:37.460Z,6.4
2024-03-24T12:08:49.519Z,6.5
2024-03-24T12:10:01.542Z,6.5
2024-03-24T12:11:13.459Z,6.5
2024-03-24T12:12:25.536Z,6.6
2024-03-24T12:14:01.514Z,6.6
2024-03-24T12:15:13.482Z,6.7
2024-03-24T12:16:25.493Z,6.7
2024-03-24T12:17:37.478Z,6.7
2024-03-24T12:19:01.472Z,6.8
2024-03-24T12:20:13.474Z,6.8
2024-03-24T12:21:49.463Z,6.8
2024-03-24T12:23:01.508Z,6.9
2024-03-24T12:25:13.478Z,6.9
2024-03-24T12:26:25.461Z,7
2024-03-24T12:27:37.494Z,7
2024-03-24T12:28:49.475Z,7
2024-03-24T12:30:01.476Z,7
2024-03-24T12:31:13.610Z,7
2024-03-24T12:32:25.497Z,7.1
2024-03-24T12:33:49.484Z,7.1
2024-03-24T12:35:01.554Z,7.1
2024-03-24T12:36:13.456Z,7.1
2024-03-24T12:37:25.467Z,7.1
2024-03-24T12:38:37.474Z,7.1
2024-03-24T12:39:49.479Z,7.1
2024-03-24T12:41:01.476Z,7.1
2024-03-24T12:42:13.568Z,7.1
2024-03-24T12:43:25.464Z,7.2
2024-03-24T12:44:37.470Z,7.2
2024-03-24T12:45:49.485Z,7.2
2024-03-24T12:47:01.480Z,7.2
2024-03-24T12:48:13.507Z,7.2
2024-03-24T12:49:38.424Z,7.2
2024-03-24T12:50:41.856Z,7.2
2024-03-24T12:51:49.872Z,7.2
2024-03-24T12:53:01.881Z,7.2
2024-03-24T12:54:13.869Z,7.2
2024-03-24T12:55:25.847Z,7.2
2024-03-24T12:56:37.873Z,7.2
2024-03-24T12:57:49.865Z,7.1
2024-03-24T12:59:01.866Z,7.1
2024-03-24T13:00:13.859Z,7
2024-03-24T13:01:25.858Z,7
2024-03-24T13:02:37.895Z,6.9
2024-03-24T13:03:49.848Z,6.9
2024-03-24T13:05:01.853Z,6.9
2024-03-24T13:06:13.857Z,6.9
2024-03-24T13:07:25.852Z,6.8
2024-03-24T13:08:37.847Z,6.8
2024-03-24T13:09:49.897Z,6.8
2024-03-24T13:11:08.359Z,6.8
2024-03-24T13:12:13.878Z,6.8
2024-03-24T13:13:25.870Z,6.8
2024-03-24T13:14:37.890Z,6.8
2024-03-24T13:15:49.855Z,6.9
2024-03-24T13:17:01.878Z,6.9
2024-03-24T13:18:13.888Z,6.9
2024-03-24T13:19:25.873Z,6.9
2024-03-24T13:20:37.884Z,6.9
2024-03-24T13:21:49.850Z,6.9
2024-03-24T13:23:01.883Z,6.9
2024-03-24T13:24:13.869Z,6.9
2024-03-24T13:25:25.867Z,6.9
2024-03-24T13:26:37.882Z,6.9
2024-03-24T13:27:49.857Z,6.9
2024-03-24T13:29:01.881Z,6.9
2024-03-24T13:30:13.877Z,6.9
2024-03-24T13:31:25.860Z,6.9
2024-03-24T13:32:37.884Z,6.9
2024-03-24T13:33:49.859Z,6.9
2024-03-24T13:35:01.915Z,6.9
2024-03-24T13:36:13.887Z,6.9
2024-03-24T13:37:25.857Z,6.9
2024-03-24T13:38:37.876Z,6.9
2024-03-24T13:39:49.866Z,6.9
2024-03-24T13:41:01.861Z,6.9
2024-03-24T13:42:13.895Z,6.9
2024-03-24T13:43:25.920Z,6.9
2024-03-24T13:44:37.884Z,7
2024-03-24T13:45:49.873Z,7
2024-03-24T13:47:01.927Z,7
2024-03-24T13:48:13.901Z,7
2024-03-24T13:49:25.933Z,7
2024-03-24T13:50:37.876Z,7
2024-03-24T13:51:50.246Z,7
2024-03-24T13:53:02.277Z,7
2024-03-24T13:54:14.267Z,7
2024-03-24T13:55:26.277Z,6.9
2024-03-24T13:56:38.302Z,6.9
2024-03-24T13:57:50.255Z,6.9
2024-03-24T13:59:02.247Z,6.9
2024-03-24T14:00:14.260Z,6.9
2024-03-24T14:01:26.262Z,7
2024-03-24T14:02:38.309Z,7
2024-03-24T14:03:50.302Z,7
2024-03-24T14:05:02.252Z,7
2024-03-24T14:06:14.378Z,7
2024-03-24T14:07:26.266Z,7
2024-03-24T14:08:38.256Z,7
2024-03-24T14:10:02.410Z,7
2024-03-24T14:11:26.269Z,7
2024-03-24T14:12:38.259Z,7
2024-03-24T14:14:14.320Z,7
2024-03-24T14:15:26.290Z,6.9
2024-03-24T14:16:38.310Z,6.9
2024-03-24T14:17:50.267Z,6.9
2024-03-24T14:19:04.916Z,6.8
2024-03-24T14:20:14.290Z,6.8
2024-03-24T14:21:26.289Z,6.7
2024-03-24T14:22:38.283Z,6.7
2024-03-24T14:23:50.301Z,6.6
2024-03-24T14:25:14.373Z,6.6
2024-03-24T14:26:26.262Z,6.6
2024-03-24T14:27:38.289Z,6.5
2024-03-24T14:28:50.296Z,6.5
2024-03-24T14:30:02.275Z,6.5
2024-03-24T14:31:38.321Z,6.4
2024-03-24T14:32:50.508Z,6.4
2024-03-24T14:34:02.284Z,6.4
2024-03-24T14:35:14.270Z,6.4
2024-03-24T14:36:38.249Z,6.4
2024-03-24T14:37:50.278Z,6.3
2024-03-24T14:39:50.260Z,6.3
2024-03-24T14:41:02.266Z,6.3
2024-03-24T14:42:14.391Z,6.3
2024-03-24T14:43:26.444Z,6.3
2024-03-24T14:44:38.288Z,6.3
2024-03-24T14:45:50.292Z,6.3
2024-03-24T14:47:02.370Z,6.3
2024-03-24T14:48:14.265Z,6.3
2024-03-24T14:49:26.266Z,6.3
2024-03-24T14:50:26.438Z,6.3
2024-03-24T14:51:38.666Z,6.3
2024-03-24T14:52:50.651Z,6.4
2024-03-24T14:54:02.665Z,6.4
2024-03-24T14:55:14.651Z,6.4
2024-03-24T14:56:26.683Z,6.4
2024-03-24T14:57:38.645Z,6.4
2024-03-24T14:58:50.686Z,6.4
2024-03-24T15:00:02.683Z,6.4
2024-03-24T15:01:14.688Z,6.4
2024-03-24T15:02:26.683Z,6.5
2024-03-24T15:03:38.682Z,6.5
2024-03-24T15:04:50.687Z,6.5
2024-03-24T15:06:02.663Z,6.6
2024-03-24T15:07:14.667Z,6.6
2024-03-24T15:08:26.686Z,6.6
2024-03-24T15:09:38.673Z,6.7
2024-03-24T15:10:50.647Z,6.7
2024-03-24T15:12:02.652Z,6.7
2024-03-24T15:13:14.680Z,6.7
2024-03-24T15:14:26.657Z,6.8
2024-03-24T15:15:38.664Z,6.8
2024-03-24T15:16:50.651Z,6.8
2024-03-24T15:18:02.816Z,6.8
2024-03-24T15:19:14.680Z,6.8
2024-03-24T15:20:26.658Z,6.8
2024-03-24T15:21:38.676Z,6.8
2024-03-24T15:22:50.700Z,6.7
2024-03-24T15:24:04.909Z,6.7
2024-03-24T15:25:14.683Z,6.7
2024-03-24T15:26:26.660Z,6.7
2024-03-24T15:27:38.659Z,6.7
2024-03-24T15:28:50.698Z,6.6
2024-03-24T15:30:03.724Z,6.6
2024-03-24T15:31:14.684Z,6.6
2024-03-24T15:32:26.693Z,6.6
2024-03-24T15:33:38.659Z,6.6
2024-03-24T15:34:50.664Z,6.6
2024-03-24T15:36:02.662Z,6.6
2024-03-24T15:37:14.702Z,6.6
2024-03-24T15:38:26.672Z,6.6
2024-03-24T15:39:38.679Z,6.6
2024-03-24T15:40:50.764Z,6.6
2024-03-24T15:42:02.672Z,6.6
2024-03-24T15:43:14.656Z,6.6
2024-03-24T15:44:26.676Z,6.6
2024-03-24T15:45:38.668Z,6.6
2024-03-24T15:48:02.690Z,6.6
2024-03-24T15:49:14.680Z,6.6
2024-03-24T15:50:26.673Z,6.6
2024-03-24T15:51:39.025Z,6.6
2024-03-24T15:52:51.044Z,6.6
2024-03-24T15:54:02.980Z,6.6
2024-03-24T15:55:15.024Z,6.6
2024-03-24T15:56:27.051Z,6.6
2024-03-24T15:57:39.023Z,6.6
2024-03-24T15:58:50.992Z,6.6
2024-03-24T16:00:02.988Z,6.6
2024-03-24T16:01:15.006Z,6.6
2024-03-24T16:02:26.986Z,6.6
2024-03-24T16:03:38.992Z,6.6
2024-03-24T16:04:50.991Z,6.6
2024-03-24T16:06:02.993Z,6.6
2024-03-24T16:07:15.019Z,6.6
2024-03-24T16:08:27.022Z,6.5
2024-03-24T16:09:39.008Z,6.5
2024-03-24T16:10:50.983Z,6.5
2024-03-24T16:12:03.025Z,6.5
2024-03-24T16:13:14.996Z,6.5
2024-03-24T16:14:27.023Z,6.5
2024-03-24T16:15:39.001Z,6.4
2024-03-24T16:16:51.004Z,6.4
2024-03-24T16:18:03.051Z,6.4
2024-03-24T16:19:15.009Z,6.4
2024-03-24T16:20:27.008Z,6.4
2024-03-24T16:21:39.006Z,6.4
2024-03-24T16:22:51.013Z,6.4
2024-03-24T16:24:02.990Z,6.3
2024-03-24T16:25:15.010Z,6.3
2024-03-24T16:26:27.029Z,6.2
2024-03-24T16:27:39.017Z,6.1
2024-03-24T16:28:51.014Z,6.1
2024-03-24T16:30:03.021Z,6
2024-03-24T16:31:15.016Z,6
2024-03-24T16:32:27.046Z,5.9
2024-03-24T16:33:39.006Z,5.9
2024-03-24T16:34:51.009Z,5.8
2024-03-24T16:36:03.024Z,5.7
2024-03-24T16:37:15.022Z,5.6
2024-03-24T16:38:27.004Z,5.6
2024-03-24T16:39:39.020Z,5.5
2024-03-24T16:40:51.056Z,5.5
2024-03-24T16:42:03.042Z,5.4
2024-03-24T16:43:15.011Z,5.4
2024-03-24T16:44:27.033Z,5.3
2024-03-24T16:45:39.016Z,5.2
2024-03-24T16:46:51.049Z,5.2
2024-03-24T16:48:03.021Z,5.2
2024-03-24T16:49:15.054Z,5.2
2024-03-24T16:50:27.040Z,5.2
2024-03-24T16:51:39.407Z,5.1
2024-03-24T16:52:51.412Z,5.1
2024-03-24T16:54:03.396Z,5.1
2024-03-24T16:55:15.423Z,5.1
2024-03-24T16:56:27.459Z,5.1
2024-03-24T16:57:39.440Z,5.1
2024-03-24T16:59:03.424Z,5.1